Time;durP1;ratioP1;P1;durP2;ratioP2;P2;SDS_P1;SDS_P2;PMS_P1;PMS_P2;Temp;Humidity;BMP_temperature;BMP_pressure;BME280_temperature;BME280_humidity;BME280_pressure;Samples;Min_cycle;Max_cycle;Signal;HPM_P1;HPM_P2
2021/11/05 00:01:44;;;;;;;13.00;2.53;;;21.10;99.90;;;;;;5077573;28;20183;-72
2021/11/05 00:04:12;;;;;;;10.73;1.83;;;21.10;99.90;;;;;;5088976;28;20191;-73
2021/11/05 00:06:40;;;;;;;11.53;1.40;;;21.10;99.90;;;;;;5085969;28;20202;-74
2021/11/05 00:09:08;;;;;;;10.07;1.87;;;21.00;99.90;;;;;;5070408;28;20171;-74
2021/11/05 00:11:35;;;;;;;11.53;1.67;;;21.00;99.90;;;;;;5074474;28;20665;-76
2021/11/05 00:14:03;;;;;;;13.53;2.07;;;21.00;99.90;;;;;;5075023;28;20206;-73
2021/11/05 00:16:30;;;;;;;11.90;1.83;;;21.00;99.90;;;;;;5088884;28;20233;-73
2021/11/05 00:18:58;;;;;;;12.40;1.90;;;21.10;99.90;;;;;;5080890;28;20191;-76
2021/11/05 00:21:25;;;;;;;7.53;1.37;;;21.20;99.90;;;;;;5076150;28;20198;-75
2021/11/05 00:23:52;;;;;;;7.27;1.40;;;21.30;99.90;;;;;;5093446;28;20213;-74
2021/11/05 00:26:19;;;;;;;16.10;1.80;;;21.40;99.90;;;;;;5071514;28;20198;-76
2021/11/05 00:28:47;;;;;;;9.53;1.80;;;21.50;99.90;;;;;;5075068;28;20261;-71
2021/11/05 00:31:14;;;;;;;10.87;1.67;;;21.70;99.90;;;;;;5081739;28;20619;-73
2021/11/05 00:33:41;;;;;;;11.80;1.73;;;21.60;99.90;;;;;;5085418;28;20294;-76
2021/11/05 00:36:13;;;;;;;14.77;2.20;;;21.70;99.90;;;;;;5077106;28;20214;-76
2021/11/05 00:38:42;;;;;;;12.50;1.40;;;21.70;99.90;;;;;;5080093;28;20266;-73
2021/11/05 00:41:11;;;;;;;7.57;1.40;;;21.70;99.90;;;;;;5075294;28;20191;-78
2021/11/05 00:43:38;;;;;;;8.73;1.57;;;21.60;99.90;;;;;;5081117;28;20316;-77
2021/11/05 00:46:06;;;;;;;7.77;1.20;;;21.50;99.90;;;;;;5066913;28;20580;-74
2021/11/05 00:48:33;;;;;;;8.30;1.70;;;21.60;99.90;;;;;;5070515;28;20216;-76
2021/11/05 00:51:01;;;;;;;6.27;1.37;;;21.60;99.90;;;;;;5076939;28;20570;-74
2021/11/05 00:53:28;;;;;;;7.97;1.10;;;21.70;99.90;;;;;;5054991;28;20211;-72
2021/11/05 00:55:56;;;;;;;6.87;1.10;;;21.70;99.90;;;;;;5082859;28;20797;-77
2021/11/05 00:58:23;;;;;;;8.50;1.37;;;21.70;99.90;;;;;;5070895;28;20232;-76
2021/11/05 01:00:51;;;;;;;10.27;1.40;;;21.70;99.90;;;;;;5075934;28;20217;-76
2021/11/05 01:03:18;;;;;;;6.93;1.63;;;21.70;99.90;;;;;;5076888;28;20166;-78
2021/11/05 01:05:45;;;;;;;6.10;1.33;;;21.90;99.90;;;;;;5078927;28;20589;-74
2021/11/05 01:08:13;;;;;;;11.23;1.67;;;21.90;99.90;;;;;;5077815;28;20187;-79
2021/11/05 01:10:40;;;;;;;11.70;1.37;;;21.90;99.90;;;;;;5081781;28;20629;-79
2021/11/05 01:13:08;;;;;;;12.50;1.93;;;22.10;99.90;;;;;;5078579;28;20227;-75
2021/11/05 01:15:36;;;;;;;8.97;2.27;;;22.20;99.90;;;;;;5079274;28;20195;-73
2021/11/05 01:18:03;;;;;;;8.80;1.60;;;22.50;99.90;;;;;;5074566;28;20278;-77
2021/11/05 01:20:31;;;;;;;8.17;1.97;;;22.40;99.90;;;;;;5073219;28;20237;-79
2021/11/05 01:22:58;;;;;;;9.17;1.90;;;22.60;99.90;;;;;;5077703;28;20198;-79
2021/11/05 01:25:26;;;;;;;12.60;1.70;;;22.60;99.90;;;;;;5078076;28;20614;-74
2021/11/05 01:27:53;;;;;;;6.37;1.37;;;22.70;99.90;;;;;;5080905;28;20202;-77
2021/11/05 01:30:21;;;;;;;9.57;1.97;;;22.80;99.90;;;;;;5079063;28;20208;-74
2021/11/05 01:32:49;;;;;;;7.27;1.37;;;22.70;99.90;;;;;;5073807;28;20659;-77
2021/11/05 01:35:18;;;;;;;7.83;1.73;;;22.70;99.90;;;;;;5072781;28;20176;-75
2021/11/05 01:37:46;;;;;;;10.00;1.47;;;22.80;99.90;;;;;;5072733;28;20197;-78
2021/11/05 01:40:15;;;;;;;5.60;1.23;;;23.00;99.90;;;;;;5076495;28;20717;-75
2021/11/05 01:42:43;;;;;;;6.60;1.63;;;23.10;99.90;;;;;;5079106;28;20221;-79
2021/11/05 01:45:12;;;;;;;9.33;1.30;;;23.20;99.90;;;;;;5074561;28;20187;-76
2021/11/05 01:47:40;;;;;;;11.13;1.73;;;23.30;99.90;;;;;;5068540;28;20658;-76
2021/11/05 01:50:10;;;;;;;8.07;1.60;;;23.60;99.90;;;;;;5076241;28;20634;-75
2021/11/05 01:52:39;;;;;;;11.57;2.17;;;23.60;99.90;;;;;;5070016;28;20240;-76
2021/11/05 01:55:08;;;;;;;8.27;1.50;;;23.70;99.90;;;;;;5073676;28;20210;-76
2021/11/05 01:57:36;;;;;;;10.67;1.70;;;24.00;99.90;;;;;;5073076;28;20287;-77
2021/11/05 02:00:06;;;;;;;12.23;1.67;;;24.00;99.90;;;;;;5072591;28;20203;-72
2021/11/05 02:02:33;;;;;;;7.67;1.63;;;24.00;99.90;;;;;;5080395;28;20526;-74
2021/11/05 02:05:01;;;;;;;7.83;1.77;;;23.90;99.90;;;;;;5076415;28;20187;-72
2021/11/05 02:07:32;;;;;;;9.17;1.50;;;23.80;99.90;;;;;;5072736;28;20175;-78
2021/11/05 02:10:01;;;;;;;7.90;1.23;;;23.70;99.90;;;;;;5083652;28;20232;-72
2021/11/05 02:12:30;;;;;;;17.33;1.50;;;23.80;99.90;;;;;;5075309;28;20345;-71
2021/11/05 02:15:02;;;;;;;9.20;1.67;;;24.10;99.90;;;;;;5075628;28;20687;-73
2021/11/05 02:17:29;;;;;;;7.37;1.73;;;23.90;99.90;;;;;;5076506;28;20214;-73
2021/11/05 02:20:00;;;;;;;8.77;1.13;;;23.90;99.90;;;;;;5074512;28;20548;-76
2021/11/05 02:22:28;;;;;;;9.67;1.47;;;23.90;99.90;;;;;;5073329;28;20288;-73
2021/11/05 02:24:59;;;;;;;4.90;1.17;;;23.90;99.90;;;;;;5085816;28;20206;-75
2021/11/05 02:27:30;;;;;;;6.90;1.43;;;23.70;99.90;;;;;;5072941;28;20194;-77
2021/11/05 02:29:59;;;;;;;11.27;1.40;;;23.70;99.90;;;;;;5076066;28;20194;-77
2021/11/05 02:32:26;;;;;;;5.07;1.07;;;23.70;99.90;;;;;;5081704;28;20200;-77
2021/11/05 02:34:54;;;;;;;10.37;1.60;;;23.70;99.90;;;;;;5072964;28;20241;-77
2021/11/05 02:37:27;;;;;;;6.10;1.43;;;23.90;99.90;;;;;;5074691;28;20193;-75
2021/11/05 02:39:55;;;;;;;7.47;1.47;;;23.90;99.90;;;;;;5073465;28;20291;-76
2021/11/05 02:42:23;;;;;;;15.30;2.60;;;23.70;99.90;;;;;;5088076;28;20174;-75
2021/11/05 02:44:50;;;;;;;5.27;1.27;;;23.80;99.90;;;;;;5076531;28;20183;-75
2021/11/05 02:47:25;;;;;;;6.30;1.57;;;23.70;99.90;;;;;;5092872;28;20174;-79
2021/11/05 02:49:55;;;;;;;8.90;2.17;;;23.50;99.90;;;;;;5080470;28;20235;-78
2021/11/05 02:52:24;;;;;;;11.53;2.30;;;23.60;99.90;;;;;;5080645;28;20308;-77
2021/11/05 02:54:51;;;;;;;8.70;1.63;;;23.60;99.90;;;;;;5084601;28;20206;-76
2021/11/05 02:57:19;;;;;;;11.40;1.20;;;23.40;99.90;;;;;;5078515;28;20183;-74
2021/11/05 02:59:47;;;;;;;11.47;1.60;;;23.50;99.90;;;;;;5084551;28;20247;-72
2021/11/05 03:02:14;;;;;;;12.33;1.83;;;23.30;99.90;;;;;;5086376;28;20193;-79
2021/11/05 03:04:41;;;;;;;9.93;1.50;;;23.20;99.90;;;;;;5079301;28;20193;-75
2021/11/05 03:07:10;;;;;;;12.53;2.07;;;23.40;99.90;;;;;;5080953;28;20179;-74
2021/11/05 03:09:40;;;;;;;7.67;1.37;;;23.60;99.90;;;;;;5092720;28;20179;-75
2021/11/05 03:12:10;;;;;;;6.87;1.43;;;23.60;99.90;;;;;;5081603;28;20219;-76
2021/11/05 03:14:39;;;;;;;9.17;1.40;;;23.60;99.90;;;;;;5088431;28;20187;-77
2021/11/05 03:17:07;;;;;;;8.57;1.20;;;23.60;99.90;;;;;;5072113;28;20208;-76
2021/11/05 03:19:35;;;;;;;7.27;1.20;;;23.80;99.90;;;;;;5092596;28;20213;-78
2021/11/05 03:22:04;;;;;;;6.07;1.37;;;24.00;99.90;;;;;;5077768;28;20551;-76
2021/11/05 03:24:32;;;;;;;5.67;1.03;;;24.30;99.90;;;;;;5076375;28;20188;-79
2021/11/05 03:26:59;;;;;;;10.37;1.67;;;24.00;99.90;;;;;;5077634;28;20179;-76
2021/11/05 03:29:27;;;;;;;8.77;1.60;;;23.80;99.90;;;;;;5091273;28;20178;-78
2021/11/05 03:31:54;;;;;;;12.30;1.70;;;23.50;99.90;;;;;;5073202;28;20167;-78
2021/11/05 03:34:22;;;;;;;7.00;1.53;;;23.50;99.90;;;;;;5070390;28;20622;-75
2021/11/05 03:36:49;;;;;;;7.27;1.30;;;23.80;99.90;;;;;;5071712;28;20171;-77
2021/11/05 03:39:17;;;;;;;10.97;2.17;;;23.90;99.90;;;;;;5080312;28;20225;-77
2021/11/05 03:41:45;;;;;;;8.60;1.57;;;24.00;99.90;;;;;;5090984;28;20204;-77
2021/11/05 03:44:12;;;;;;;5.13;1.30;;;24.00;99.90;;;;;;5070408;28;20668;-78
2021/11/05 03:46:40;;;;;;;3.20;1.17;;;23.80;99.90;;;;;;5086498;28;20183;-76
2021/11/05 03:49:07;;;;;;;6.37;1.10;;;23.70;99.90;;;;;;5089417;28;20178;-73
2021/11/05 03:51:35;;;;;;;6.07;0.90;;;23.70;99.90;;;;;;5090413;28;20254;-75
2021/11/05 03:54:03;;;;;;;9.17;1.63;;;23.80;99.90;;;;;;5070889;28;20297;-80
2021/11/05 03:56:30;;;;;;;6.57;1.20;;;23.60;99.90;;;;;;5082408;28;21695;-77
2021/11/05 03:58:58;;;;;;;6.27;1.20;;;23.80;99.90;;;;;;5056822;28;20184;-78
2021/11/05 04:01:26;;;;;;;7.20;1.17;;;23.80;99.90;;;;;;5085617;28;20190;-76
2021/11/05 04:03:53;;;;;;;6.60;1.37;;;23.60;99.90;;;;;;5077506;28;20187;-74
2021/11/05 04:06:22;;;;;;;9.27;1.70;;;23.60;99.90;;;;;;5063202;28;20185;-76
2021/11/05 04:08:50;;;;;;;10.90;1.47;;;23.50;99.90;;;;;;5084030;28;20648;-74
2021/11/05 04:11:18;;;;;;;10.37;1.70;;;23.70;99.90;;;;;;5091610;28;20187;-74
2021/11/05 04:13:46;;;;;;;8.10;1.43;;;23.80;99.90;;;;;;5080803;28;20553;-74
2021/11/05 04:16:15;;;;;;;4.30;1.37;;;24.10;99.90;;;;;;5063246;28;20218;-77
2021/11/05 04:18:42;;;;;;;4.80;1.00;;;24.30;99.90;;;;;;5086334;28;20183;-80
2021/11/05 04:21:09;;;;;;;10.50;2.30;;;23.90;99.90;;;;;;5091873;28;20240;-78
2021/11/05 04:23:37;;;;;;;10.07;1.30;;;23.80;99.90;;;;;;5082179;28;20182;-77
2021/11/05 04:26:05;;;;;;;6.97;1.30;;;23.80;99.90;;;;;;5070280;28;20183;-76
2021/11/05 04:28:33;;;;;;;10.70;2.00;;;24.00;99.90;;;;;;5081374;28;20171;-75
2021/11/05 04:31:01;;;;;;;8.43;1.00;;;23.60;99.90;;;;;;5090496;28;20175;-74
2021/11/05 04:33:32;;;;;;;8.10;1.20;;;23.60;99.90;;;;;;5076169;28;20232;-79
2021/11/05 04:36:04;;;;;;;6.90;1.13;;;23.40;99.90;;;;;;5084294;28;20184;-74
2021/11/05 04:38:31;;;;;;;6.77;2.03;;;23.20;99.90;;;;;;5070219;28;20191;-74
2021/11/05 04:40:59;;;;;;;9.53;1.23;;;23.30;99.90;;;;;;5092815;28;20267;-77
2021/11/05 04:43:26;;;;;;;6.73;1.37;;;23.80;99.90;;;;;;5087558;28;20182;-77
2021/11/05 04:45:54;;;;;;;7.17;1.03;;;24.30;99.90;;;;;;5085959;28;20277;-76
2021/11/05 04:48:21;;;;;;;7.93;1.80;;;24.70;99.90;;;;;;5094084;28;20269;-75
2021/11/05 04:50:49;;;;;;;10.17;1.63;;;24.80;99.90;;;;;;5094663;28;20225;-75
2021/11/05 04:53:16;;;;;;;8.40;1.30;;;24.80;99.90;;;;;;5095196;28;20178;-79
2021/11/05 04:55:43;;;;;;;10.27;1.83;;;24.60;99.90;;;;;;5095092;28;20524;-75
2021/11/05 04:58:11;;;;;;;7.37;1.10;;;24.60;99.90;;;;;;5095676;28;20217;-77
2021/11/05 05:00:38;;;;;;;8.10;1.50;;;24.50;99.90;;;;;;5095046;28;20213;-74
2021/11/05 05:03:05;;;;;;;7.33;1.40;;;24.30;99.90;;;;;;5095217;28;20178;-77
2021/11/05 05:05:33;;;;;;;10.50;2.10;;;23.90;99.90;;;;;;5094562;28;20181;-73
2021/11/05 05:08:00;;;;;;;10.43;1.57;;;24.40;99.90;;;;;;5094895;28;20179;-74
2021/11/05 05:10:30;;;;;;;7.63;1.73;;;24.80;99.90;;;;;;5095178;28;20193;-71
2021/11/05 05:12:58;;;;;;;9.80;1.10;;;24.50;99.90;;;;;;5090939;28;20622;-75
2021/11/05 05:15:25;;;;;;;11.63;1.50;;;24.10;99.90;;;;;;5087084;28;20179;-75
2021/11/05 05:17:53;;;;;;;9.97;1.50;;;23.90;99.90;;;;;;5094581;28;20222;-76
2021/11/05 05:20:23;;;;;;;8.33;1.20;;;23.60;99.90;;;;;;5094725;28;20215;-72
2021/11/05 05:22:50;;;;;;;8.07;1.63;;;23.50;99.90;;;;;;5085169;28;20175;-76
2021/11/05 05:25:18;;;;;;;9.30;2.10;;;23.30;99.90;;;;;;5075169;28;20661;-79
2021/11/05 05:27:48;;;;;;;9.07;1.73;;;23.30;99.90;;;;;;5094665;28;20209;-75
2021/11/05 05:30:18;;;;;;;8.83;1.60;;;23.50;99.90;;;;;;5094015;28;20274;-73
2021/11/05 05:32:48;;;;;;;6.17;1.20;;;23.30;99.90;;;;;;5086232;28;20175;-75
2021/11/05 05:35:15;;;;;;;5.87;1.10;;;23.10;99.90;;;;;;5079040;28;20179;-78
2021/11/05 05:37:43;;;;;;;6.00;1.03;;;23.00;99.90;;;;;;5084619;28;20283;-74
2021/11/05 05:40:12;;;;;;;6.67;1.50;;;22.90;99.90;;;;;;5083115;28;20203;-80
2021/11/05 05:42:39;;;;;;;11.17;1.70;;;23.00;99.90;;;;;;5090646;28;20174;-78
2021/11/05 05:45:08;;;;;;;11.27;1.47;;;22.90;99.90;;;;;;5076717;28;20197;-78
2021/11/05 05:47:36;;;;;;;8.90;1.40;;;22.70;99.90;;;;;;5074127;28;20175;-76
2021/11/05 05:50:06;;;;;;;11.43;1.97;;;22.50;99.90;;;;;;5083711;28;20261;-78
2021/11/05 05:52:33;;;;;;;8.97;1.90;;;22.60;99.90;;;;;;5088122;28;20660;-76
2021/11/05 05:55:01;;;;;;;7.93;1.37;;;22.60;99.90;;;;;;5074543;28;20209;-73
2021/11/05 05:57:28;;;;;;;8.27;2.00;;;22.40;99.90;;;;;;5074905;28;20325;-77
2021/11/05 05:59:56;;;;;;;8.87;1.50;;;22.30;99.90;;;;;;5072932;28;20211;-74
2021/11/05 06:02:27;;;;;;;8.63;1.20;;;22.30;99.90;;;;;;5089834;28;20187;-72
2021/11/05 06:04:56;;;;;;;9.33;1.87;;;22.20;99.90;;;;;;5093677;28;20182;-80
2021/11/05 06:07:23;;;;;;;12.67;1.53;;;22.30;99.90;;;;;;5094571;28;20236;-74
2021/11/05 06:09:50;;;;;;;8.83;1.70;;;22.40;99.90;;;;;;5092147;28;20186;-73
2021/11/05 06:12:17;;;;;;;11.73;1.87;;;22.40;99.90;;;;;;5085829;28;20221;-79
2021/11/05 06:14:45;;;;;;;8.13;1.60;;;22.30;99.90;;;;;;5079776;28;20225;-76
2021/11/05 06:17:12;;;;;;;9.90;1.57;;;22.20;99.90;;;;;;5076914;28;20614;-78
2021/11/05 06:19:40;;;;;;;5.60;1.50;;;22.20;99.90;;;;;;5079589;28;20200;-75
2021/11/05 06:22:07;;;;;;;9.60;1.50;;;22.20;99.90;;;;;;5084340;28;20874;-74
2021/11/05 06:24:34;;;;;;;3.80;1.30;;;22.10;99.90;;;;;;5093734;28;20261;-77
2021/11/05 06:27:02;;;;;;;7.13;1.47;;;22.00;99.90;;;;;;5075138;28;20183;-74
2021/11/05 06:29:29;;;;;;;9.23;1.27;;;21.90;99.90;;;;;;5080357;28;20512;-76
2021/11/05 06:31:56;;;;;;;8.57;2.00;;;21.90;99.90;;;;;;5084476;28;20176;-72
2021/11/05 06:34:24;;;;;;;10.83;1.60;;;21.90;99.90;;;;;;5073397;28;20189;-74
2021/11/05 06:36:51;;;;;;;6.17;1.00;;;21.90;99.90;;;;;;5071469;28;20182;-76
2021/11/05 06:39:18;;;;;;;9.93;1.60;;;21.80;99.90;;;;;;5069788;28;20264;-74
2021/11/05 06:41:46;;;;;;;6.27;1.50;;;21.80;99.90;;;;;;5072339;28;20538;-76
2021/11/05 06:44:13;;;;;;;5.53;1.13;;;21.60;99.90;;;;;;5072748;28;20677;-75
2021/11/05 06:46:41;;;;;;;10.40;1.97;;;21.50;99.90;;;;;;5068950;28;20228;-75
2021/11/05 06:49:08;;;;;;;8.63;1.37;;;21.50;99.90;;;;;;5072334;28;20217;-73
2021/11/05 06:51:38;;;;;;;7.63;1.27;;;21.50;99.90;;;;;;5077088;28;20248;-74
2021/11/05 06:54:06;;;;;;;8.77;1.90;;;21.50;99.90;;;;;;5070806;28;20250;-76
2021/11/05 06:56:33;;;;;;;10.00;2.40;;;21.40;99.90;;;;;;5072513;28;20209;-73
2021/11/05 06:59:02;;;;;;;10.37;1.50;;;21.40;99.90;;;;;;5070539;28;20262;-68
2021/11/05 07:01:30;;;;;;;12.50;4.73;;;21.40;99.90;;;;;;5072369;28;20198;-79
2021/11/05 07:03:57;;;;;;;10.93;3.47;;;21.40;99.90;;;;;;5071667;28;21022;-73
2021/11/05 07:06:24;;;;;;;8.07;2.13;;;21.50;99.90;;;;;;5071340;28;20253;-75
2021/11/05 07:08:52;;;;;;;13.90;4.03;;;21.50;99.90;;;;;;5072568;28;20172;-76
2021/11/05 07:11:19;;;;;;;11.73;1.77;;;21.40;99.90;;;;;;5071950;28;20177;-74
2021/11/05 07:13:46;;;;;;;11.20;1.67;;;21.30;99.90;;;;;;5071254;28;20300;-75
2021/11/05 07:16:14;;;;;;;17.47;1.90;;;21.20;99.90;;;;;;5072259;28;20528;-74
2021/11/05 07:18:41;;;;;;;7.90;1.53;;;21.20;99.90;;;;;;5071609;28;20171;-74
2021/11/05 07:21:09;;;;;;;8.67;1.57;;;21.20;99.90;;;;;;5059682;28;20212;-77
2021/11/05 07:23:37;;;;;;;13.47;1.57;;;21.30;99.90;;;;;;5063589;28;20262;-74
2021/11/05 07:26:09;;;;;;;9.20;1.83;;;21.10;99.90;;;;;;5070443;28;20179;-76
2021/11/05 07:28:36;;;;;;;10.87;1.93;;;21.10;99.90;;;;;;5071315;28;20258;-73
2021/11/05 07:31:04;;;;;;;9.57;1.57;;;21.10;99.90;;;;;;5070728;28;20182;-70
2021/11/05 07:33:31;;;;;;;8.93;2.07;;;21.10;99.90;;;;;;5073318;28;20179;-76
2021/11/05 07:35:59;;;;;;;10.07;1.70;;;21.00;99.90;;;;;;5077403;28;20184;-74
2021/11/05 07:38:26;;;;;;;8.53;1.50;;;20.90;99.90;;;;;;5072195;28;20583;-76
2021/11/05 07:40:54;;;;;;;22.60;3.00;;;21.00;99.90;;;;;;5071354;28;20685;-72
2021/11/05 07:43:22;;;;;;;8.47;2.10;;;20.90;99.90;;;;;;5077164;28;20190;-77
2021/11/05 07:45:49;;;;;;;11.00;1.90;;;20.90;99.90;;;;;;5068220;28;20183;-74
2021/11/05 07:48:16;;;;;;;14.27;2.20;;;20.90;99.90;;;;;;5074695;28;20183;-74
2021/11/05 07:50:44;;;;;;;22.30;2.17;;;20.90;99.90;;;;;;5079678;28;20194;-73
2021/11/05 07:53:11;;;;;;;11.40;2.30;;;20.90;99.90;;;;;;5085917;28;20182;-75
2021/11/05 07:55:38;;;;;;;8.90;2.27;;;20.90;99.90;;;;;;5079142;28;20219;-73
2021/11/05 07:58:06;;;;;;;10.77;2.20;;;20.90;99.90;;;;;;5074526;28;20229;-75
2021/11/05 08:00:35;;;;;;;13.13;1.97;;;20.80;99.90;;;;;;5079582;28;20222;-72
2021/11/05 08:03:03;;;;;;;7.47;1.40;;;20.70;99.90;;;;;;5076934;28;20186;-77
2021/11/05 08:05:30;;;;;;;13.30;2.37;;;20.60;99.90;;;;;;5085477;28;20270;-76
2021/11/05 08:07:58;;;;;;;8.07;1.93;;;20.60;99.90;;;;;;5075783;28;20657;-77
2021/11/05 08:10:26;;;;;;;9.50;1.90;;;20.60;99.90;;;;;;5090765;28;20649;-73
2021/11/05 08:12:53;;;;;;;10.03;1.77;;;20.50;99.90;;;;;;5083722;28;20227;-74
2021/11/05 08:15:22;;;;;;;7.30;1.83;;;20.60;99.90;;;;;;5065094;28;20309;-74
2021/11/05 08:17:50;;;;;;;12.17;1.90;;;20.60;99.90;;;;;;5088060;28;20183;-77
2021/11/05 08:20:18;;;;;;;8.60;1.97;;;20.50;99.90;;;;;;5085241;28;20210;-75
2021/11/05 08:22:47;;;;;;;12.10;1.63;;;20.40;99.90;;;;;;5078117;28;20629;-73
2021/11/05 08:25:17;;;;;;;10.20;1.70;;;20.40;99.90;;;;;;5095387;28;20178;-80
2021/11/05 08:27:45;;;;;;;8.77;1.60;;;20.40;99.90;;;;;;5075668;28;20260;-72
2021/11/05 08:30:20;;;;;;;8.60;1.87;;;20.30;99.90;;;;;;5094778;28;20693;-74
2021/11/05 08:32:48;;;;;;;9.40;1.40;;;20.30;99.90;;;;;;5075219;28;20293;-74
2021/11/05 08:35:16;;;;;;;12.30;1.60;;;20.20;99.90;;;;;;5090000;28;20258;-70
2021/11/05 08:37:44;;;;;;;6.43;1.40;;;20.20;99.90;;;;;;5074153;28;20183;-76
2021/11/05 08:40:12;;;;;;;11.50;1.43;;;20.20;99.90;;;;;;5075086;28;20210;-76
2021/11/05 08:42:40;;;;;;;8.57;2.20;;;20.20;99.90;;;;;;5067829;28;20661;-75
2021/11/05 08:45:08;;;;;;;9.73;2.20;;;20.10;99.90;;;;;;5066772;28;20185;-76
2021/11/05 08:47:37;;;;;;;10.47;1.90;;;20.10;99.90;;;;;;5075304;28;20266;-73
2021/11/05 08:50:07;;;;;;;12.03;1.80;;;20.10;99.90;;;;;;5070849;28;20266;-75
2021/11/05 08:52:35;;;;;;;15.37;1.77;;;20.10;99.90;;;;;;5074982;28;20420;-78
2021/11/05 08:55:05;;;;;;;8.67;1.50;;;20.10;99.90;;;;;;5075196;28;20213;-74
2021/11/05 08:57:34;;;;;;;8.97;1.60;;;20.10;99.90;;;;;;5075022;28;20176;-77
2021/11/05 09:00:01;;;;;;;15.27;2.30;;;20.00;99.90;;;;;;5074496;28;20191;-73
2021/11/05 09:02:29;;;;;;;14.30;2.10;;;20.00;99.90;;;;;;5072758;28;20665;-74
2021/11/05 09:04:56;;;;;;;13.43;1.90;;;20.00;99.90;;;;;;5070507;28;20179;-78
2021/11/05 09:07:25;;;;;;;16.30;1.83;;;20.00;99.90;;;;;;5073341;28;20183;-74
2021/11/05 09:09:52;;;;;;;10.40;2.10;;;20.00;99.90;;;;;;5074533;28;20179;-75
2021/11/05 09:12:20;;;;;;;11.57;2.50;;;20.00;99.90;;;;;;5074511;28;20253;-74
2021/11/05 09:14:47;;;;;;;11.90;1.87;;;20.00;99.90;;;;;;5074136;28;20175;-74
2021/11/05 09:17:18;;;;;;;12.93;1.90;;;20.00;99.90;;;;;;5060421;28;20179;-74
2021/11/05 09:19:46;;;;;;;15.27;2.33;;;20.00;99.90;;;;;;5074305;28;20215;-74
2021/11/05 09:22:13;;;;;;;14.30;2.10;;;19.90;99.90;;;;;;5073284;28;20247;-77
2021/11/05 09:24:40;;;;;;;11.40;2.30;;;19.90;99.90;;;;;;5064100;28;20180;-74
2021/11/05 09:27:09;;;;;;;20.37;2.40;;;19.90;99.90;;;;;;5073586;28;20718;-73
2021/11/05 09:29:37;;;;;;;10.47;2.23;;;19.90;99.90;;;;;;5073964;28;20183;-73
2021/11/05 09:32:04;;;;;;;15.47;2.03;;;19.90;99.90;;;;;;5074277;28;20266;-76
2021/11/05 09:34:32;;;;;;;15.57;2.30;;;20.00;99.90;;;;;;5084306;28;20227;-72
2021/11/05 09:37:04;;;;;;;12.83;2.00;;;20.00;99.90;;;;;;5082479;28;20592;-73
2021/11/05 09:39:32;;;;;;;13.97;2.73;;;20.00;99.90;;;;;;5092865;28;20721;-77
2021/11/05 09:42:01;;;;;;;8.47;1.87;;;19.90;99.90;;;;;;5082938;28;20183;-77
2021/11/05 09:44:29;;;;;;;12.43;2.67;;;19.90;99.90;;;;;;5084802;28;20193;-78
2021/11/05 09:47:04;;;;;;;11.83;2.77;;;19.90;99.90;;;;;;5089431;28;20202;-77
2021/11/05 09:49:33;;;;;;;13.87;3.23;;;20.00;99.90;;;;;;5087158;28;20186;-75
2021/11/05 09:52:03;;;;;;;13.43;2.20;;;19.90;99.90;;;;;;5079595;28;20546;-77
2021/11/05 09:54:32;;;;;;;8.03;1.80;;;19.90;99.90;;;;;;5068281;28;20193;-75
2021/11/05 09:57:02;;;;;;;6.57;1.60;;;19.90;99.90;;;;;;5075683;28;20217;-78
2021/11/05 09:59:29;;;;;;;8.97;1.77;;;19.90;99.90;;;;;;5079643;28;20251;-76
2021/11/05 10:01:57;;;;;;;13.87;2.00;;;19.90;99.90;;;;;;5093337;28;20193;-78
2021/11/05 10:04:24;;;;;;;11.63;1.60;;;19.90;99.90;;;;;;5091630;28;20198;-75
2021/11/05 10:07:10;;;;;;;7.70;1.60;;;19.90;99.90;;;;;;5083074;28;20668;-78
2021/11/05 10:09:46;;;;;;;11.73;1.90;;;19.90;99.90;;;;;;5088358;28;20182;-75
2021/11/05 10:12:16;;;;;;;10.77;1.83;;;19.80;99.90;;;;;;5082655;28;20223;-78
2021/11/05 10:14:46;;;;;;;8.37;1.30;;;19.90;99.90;;;;;;5078650;28;20183;-74
2021/11/05 10:17:17;;;;;;;4.77;1.27;;;19.90;99.90;;;;;;5094117;28;20182;-73
2021/11/05 10:19:56;;;;;;;7.00;1.20;;;19.80;99.90;;;;;;5093548;28;20198;-75
2021/11/05 10:22:40;;;;;;;6.97;1.47;;;19.80;99.90;;;;;;5075015;28;20278;-73
2021/11/05 10:25:37;;;;;;;11.40;1.57;;;19.80;99.90;;;;;;5065985;28;20640;-75
2021/11/05 10:28:15;;;;;;;11.43;1.30;;;19.80;99.90;;;;;;5076378;28;20172;-76
2021/11/05 10:30:45;;;;;;;12.83;2.20;;;19.80;99.90;;;;;;5089307;28;20222;-77
2021/11/05 10:33:15;;;;;;;16.10;1.87;;;19.80;99.90;;;;;;5090436;28;20174;-73
2021/11/05 10:35:46;;;;;;;9.07;1.90;;;19.80;99.90;;;;;;5084003;28;20190;-76
2021/11/05 10:38:16;;;;;;;8.07;1.50;;;19.80;99.90;;;;;;5078014;28;20528;-74
2021/11/05 10:40:48;;;;;;;9.93;1.70;;;19.80;99.90;;;;;;5078018;28;20716;-74
2021/11/05 10:43:34;;;;;;;8.93;1.30;;;19.80;99.90;;;;;;5073801;28;20186;-77
2021/11/05 10:46:02;;;;;;;9.33;1.20;;;19.80;99.90;;;;;;5060997;28;20186;-72
2021/11/05 10:48:34;;;;;;;7.87;1.63;;;19.80;99.90;;;;;;5077894;28;20179;-76
2021/11/05 10:51:04;;;;;;;14.33;2.13;;;19.80;99.90;;;;;;5082553;28;20672;-74
2021/11/05 10:53:34;;;;;;;5.33;1.67;;;19.70;99.90;;;;;;5071889;28;20184;-76
2021/11/05 10:56:03;;;;;;;10.37;1.73;;;19.70;99.90;;;;;;5067054;28;20183;-75
2021/11/05 10:58:39;;;;;;;9.10;1.80;;;19.70;99.90;;;;;;5072637;28;20586;-75
2021/11/05 11:01:11;;;;;;;7.37;1.77;;;19.70;99.90;;;;;;5065515;28;20705;-76
2021/11/05 11:03:58;;;;;;;16.73;5.13;;;19.70;99.90;;;;;;5059630;28;20710;-74
2021/11/05 11:06:37;;;;;;;13.23;3.10;;;19.70;99.90;;;;;;5072383;28;20183;-75
2021/11/05 11:09:09;;;;;;;12.40;1.87;;;19.70;99.90;;;;;;5072715;28;20194;-73
2021/11/05 11:11:45;;;;;;;9.63;1.67;;;19.60;99.90;;;;;;5071134;28;20214;-77
2021/11/05 11:14:19;;;;;;;8.13;1.23;;;19.60;99.90;;;;;;5072291;28;20187;-78
2021/11/05 11:16:56;;;;;;;6.93;1.50;;;19.60;99.90;;;;;;5071207;28;20182;-75
2021/11/05 11:19:36;;;;;;;7.03;1.83;;;19.50;99.90;;;;;;5059345;28;20578;-72
2021/11/05 11:22:09;;;;;;;11.03;1.50;;;19.50;99.90;;;;;;5072298;28;20649;-76
2021/11/05 11:24:42;;;;;;;6.67;1.40;;;19.50;99.90;;;;;;5072543;28;20179;-77
2021/11/05 11:27:11;;;;;;;10.23;2.27;;;19.40;99.90;;;;;;5072418;28;20183;-74
2021/11/05 11:29:38;;;;;;;12.53;1.90;;;19.40;99.90;;;;;;5071330;28;20186;-75
2021/11/05 11:32:07;;;;;;;14.03;2.23;;;19.40;99.90;;;;;;5071288;28;20202;-75
2021/11/05 11:34:35;;;;;;;11.07;1.70;;;19.40;99.90;;;;;;5090992;28;20282;-73
2021/11/05 11:37:03;;;;;;;11.90;2.07;;;19.40;99.90;;;;;;5068512;28;20582;-76
2021/11/05 11:39:32;;;;;;;13.17;1.70;;;19.30;99.90;;;;;;5070656;28;20215;-75
2021/11/05 11:42:07;;;;;;;12.40;1.80;;;19.30;99.90;;;;;;5071834;28;20187;-74
2021/11/05 11:44:37;;;;;;;16.67;2.13;;;19.30;99.90;;;;;;5072844;28;20512;-75
2021/11/05 11:47:10;;;;;;;9.87;1.40;;;19.30;99.90;;;;;;5072527;28;20179;-75
2021/11/05 11:49:40;;;;;;;16.47;2.53;;;19.30;99.90;;;;;;5072955;28;20202;-74
2021/11/05 11:52:21;;;;;;;12.83;1.83;;;19.30;99.90;;;;;;5061831;28;20187;-74
2021/11/05 11:54:51;;;;;;;10.57;1.60;;;19.20;99.90;;;;;;5076396;28;20215;-75
2021/11/05 11:57:25;;;;;;;14.03;2.10;;;19.30;99.90;;;;;;5074959;28;20184;-74
2021/11/05 12:00:10;;;;;;;9.00;1.77;;;19.20;99.90;;;;;;5070682;28;20219;-72
2021/11/05 12:02:40;;;;;;;12.23;2.27;;;19.20;99.90;;;;;;5076339;28;20222;-72
2021/11/05 12:05:20;;;;;;;15.13;2.13;;;19.20;99.90;;;;;;5075880;28;20195;-73
2021/11/05 12:08:18;;;;;;;18.90;2.40;;;19.20;99.90;;;;;;5075816;28;20210;-75
2021/11/05 12:11:20;;;;;;;11.17;2.30;;;19.10;99.90;;;;;;5062398;28;20187;-74
2021/11/05 12:13:56;;;;;;;12.80;1.83;;;19.20;99.90;;;;;;5075551;28;20252;-72
2021/11/05 12:16:30;;;;;;;12.00;2.60;;;19.10;99.90;;;;;;5076147;28;20190;-74
2021/11/05 12:19:03;;;;;;;16.17;2.33;;;19.10;99.90;;;;;;5075833;28;20168;-73
2021/11/05 12:21:35;;;;;;;12.40;1.97;;;19.10;99.90;;;;;;5075491;28;20222;-73
2021/11/05 12:24:15;;;;;;;13.13;2.23;;;19.20;99.90;;;;;;5075702;28;20182;-75
2021/11/05 12:26:46;;;;;;;12.80;2.03;;;19.10;99.90;;;;;;5075910;28;20187;-76
2021/11/05 12:29:33;;;;;;;9.47;1.77;;;19.20;99.90;;;;;;5075327;28;20225;-76
2021/11/05 12:32:01;;;;;;;12.30;1.60;;;19.20;99.90;;;;;;5065304;28;20202;-74
2021/11/05 12:34:36;;;;;;;14.37;2.40;;;19.10;99.90;;;;;;5084596;28;20255;-74
2021/11/05 12:37:06;;;;;;;10.47;1.70;;;19.10;99.90;;;;;;5087533;28;20198;-75
2021/11/05 12:39:36;;;;;;;8.10;1.43;;;19.00;99.90;;;;;;5085670;28;20622;-74
2021/11/05 12:42:11;;;;;;;8.47;1.83;;;19.00;99.90;;;;;;5069593;28;20199;-75
2021/11/05 12:45:00;;;;;;;6.50;1.27;;;19.00;99.90;;;;;;5075904;28;20240;-73
2021/11/05 12:47:53;;;;;;;7.13;1.23;;;19.00;99.90;;;;;;5066086;28;20202;-75
2021/11/05 12:50:26;;;;;;;7.80;1.70;;;18.90;99.90;;;;;;5055066;28;20187;-76
2021/11/05 12:53:03;;;;;;;7.53;1.30;;;18.90;99.90;;;;;;5059783;28;20195;-75
2021/11/05 12:55:36;;;;;;;15.03;2.80;;;18.90;99.90;;;;;;5065671;28;20175;-74